createdAt,value
2022-10-12T00:02:05.962Z,98456.59
2022-10-12T00:04:32.952Z,98452.44
2022-10-12T00:06:59.638Z,98455.16
2022-10-12T00:09:26.391Z,98456.06
2022-10-12T00:11:53.112Z,98459.63
2022-10-12T00:14:19.790Z,98457.44
2022-10-12T00:16:46.490Z,98449.00
2022-10-12T00:19:14.153Z,98460.34
2022-10-12T00:21:40.978Z,98449.09
2022-10-12T00:24:09.222Z,98450.75
2022-10-12T00:26:36.297Z,98450.75
2022-10-12T00:29:03.697Z,98449.94
2022-10-12T00:31:31.911Z,98443.78
2022-10-12T00:34:02.746Z,98444.81
2022-10-12T00:36:35.744Z,98444.31
2022-10-12T00:39:06.310Z,98446.25
2022-10-12T00:41:39.393Z,98451.56
2022-10-12T00:44:40.470Z,98448.34
2022-10-12T00:47:24.241Z,98448.34
2022-10-12T00:50:25.338Z,98456.16
2022-10-12T00:53:13.123Z,98447.31
2022-10-12T00:55:48.745Z,98447.31
2022-10-12T00:58:16.218Z,98438.56
2022-10-12T01:00:43.664Z,98447.09
2022-10-12T01:03:17.405Z,98443.59
2022-10-12T01:05:44.170Z,98446.19
2022-10-12T01:08:10.972Z,98440.34
2022-10-12T01:10:37.688Z,98443.34
2022-10-12T01:13:04.975Z,98447.00
2022-10-12T01:15:39.293Z,98439.94
2022-10-12T01:18:31.706Z,98438.06
2022-10-12T01:21:23.545Z,98443.34
2022-10-12T01:24:15.582Z,98447.00
2022-10-12T01:27:05.601Z,98435.53
2022-10-12T01:30:22.442Z,98436.38
2022-10-12T01:33:25.065Z,98442.19
2022-10-12T01:36:00.250Z,98437.72
2022-10-12T01:39:21.043Z,98435.00
2022-10-12T01:41:58.321Z,98437.59
2022-10-12T01:44:26.957Z,98443.84
2022-10-12T01:46:56.378Z,98438.88
2022-10-12T01:49:30.151Z,98440.75
2022-10-12T01:52:10.696Z,98429.50
2022-10-12T01:55:21.052Z,98433.66
2022-10-12T01:58:17.829Z,98431.06
2022-10-12T02:01:07.839Z,98434.50
2022-10-12T02:03:55.968Z,98431.44
2022-10-12T02:06:32.414Z,98429.25
2022-10-12T02:09:11.794Z,98431.13
2022-10-12T02:11:50.167Z,98429.47
2022-10-12T02:14:22.274Z,98429.84
2022-10-12T02:16:58.868Z,98427.56
2022-10-12T02:19:29.760Z,98423.41
2022-10-12T02:22:01.883Z,98424.34
2022-10-12T02:24:31.589Z,98425.28
2022-10-12T02:27:01.166Z,98421.91
2022-10-12T02:29:35.966Z,98421.28
2022-10-12T02:32:23.247Z,98422.44
2022-10-12T02:35:19.323Z,98422.81
2022-10-12T02:37:51.866Z,98418.13
2022-10-12T02:40:42.961Z,98418.34
2022-10-12T02:43:21.243Z,98415.06
2022-10-12T02:45:49.950Z,98412.69
2022-10-12T02:48:23.910Z,98421.81
2022-10-12T02:50:56.730Z,98422.28
2022-10-12T02:53:26.790Z,98408.75
2022-10-12T02:56:00.857Z,98418.38
2022-10-12T02:58:27.635Z,98415.88
2022-10-12T03:00:54.428Z,98420.44
2022-10-12T03:03:21.279Z,98413.03
2022-10-12T03:05:48.022Z,98408.75
2022-10-12T03:08:14.724Z,98415.53
2022-10-12T03:10:41.442Z,98413.88
2022-10-12T03:13:08.225Z,98408.94
2022-10-12T03:15:34.916Z,98417.88
2022-10-12T03:18:01.634Z,98408.63
2022-10-12T03:20:28.361Z,98426.03
2022-10-12T03:22:55.162Z,98410.75
2022-10-12T03:25:22.266Z,98406.38
2022-10-12T03:27:48.952Z,98420.41
2022-10-12T03:30:16.234Z,98411.41
2022-10-12T03:32:42.973Z,98421.53
2022-10-12T03:35:10.051Z,98328.63
2022-10-12T03:37:37.063Z,98416.06
2022-10-12T03:40:04.453Z,98422.28
2022-10-12T03:42:31.142Z,98421.72
2022-10-12T03:44:57.842Z,98413.38
2022-10-12T03:47:24.543Z,98415.50
2022-10-12T03:49:51.230Z,98415.88
2022-10-12T03:52:17.916Z,98424.59
2022-10-12T03:54:44.635Z,98429.06
2022-10-12T03:57:11.490Z,98419.59
2022-10-12T03:59:38.191Z,98419.75
2022-10-12T04:02:04.903Z,98421.06
2022-10-12T04:04:31.602Z,98419.56
2022-10-12T04:06:58.294Z,98424.94
2022-10-12T04:09:25.111Z,98421.78
2022-10-12T04:11:51.828Z,98411.66
2022-10-12T04:14:18.514Z,98420.47
2022-10-12T04:16:45.210Z,98417.97
2022-10-12T04:19:15.368Z,98425.09
2022-10-12T04:21:42.170Z,98420.19
2022-10-12T04:24:08.908Z,98412.66
2022-10-12T04:26:35.747Z,98423.22
2022-10-12T04:29:02.573Z,98415.63
2022-10-12T04:31:29.780Z,98420.06
2022-10-12T04:33:57.489Z,98423.50
2022-10-12T04:36:25.439Z,98419.16
2022-10-12T04:38:57.019Z,98425.31
2022-10-12T04:41:32.933Z,98422.25
2022-10-12T04:43:59.640Z,98422.44
2022-10-12T04:46:26.486Z,98421.63
2022-10-12T04:48:53.360Z,98426.22
2022-10-12T04:51:20.147Z,98425.66
2022-10-12T04:53:46.842Z,98424.91
2022-10-12T04:56:13.575Z,98417.38
2022-10-12T04:58:40.316Z,98426.16
2022-10-12T05:01:07.044Z,98437.44
2022-10-12T05:03:36.081Z,98429.75
2022-10-12T05:06:06.643Z,98426.16
2022-10-12T05:08:33.417Z,98425.16
2022-10-12T05:11:00.250Z,98431.00
2022-10-12T05:13:27.145Z,98436.00
2022-10-12T05:15:53.954Z,98434.81
2022-10-12T05:18:20.644Z,98441.50
2022-10-12T05:20:47.407Z,98442.06
2022-10-12T05:23:14.543Z,98431.44
2022-10-12T05:25:41.311Z,98426.09
2022-10-12T05:28:08.053Z,98437.03
2022-10-12T05:30:34.871Z,98442.03
2022-10-12T05:33:01.583Z,98436.66
2022-10-12T05:35:28.322Z,98435.56
2022-10-12T05:37:55.093Z,98450.94
2022-10-12T05:40:21.851Z,98441.31
2022-10-12T05:42:48.537Z,98453.25
2022-10-12T05:45:15.374Z,98448.75
2022-10-12T05:47:42.197Z,98448.56
2022-10-12T05:50:09.368Z,98454.31
2022-10-12T05:52:36.409Z,98450.69
2022-10-12T05:55:03.723Z,98453.88
2022-10-12T05:57:30.466Z,98460.53
2022-10-12T05:59:57.230Z,98452.66
2022-10-12T06:02:23.967Z,98450.78
2022-10-12T06:04:50.695Z,98460.09
2022-10-12T06:07:17.424Z,98458.13
2022-10-12T06:09:44.722Z,98459.63
2022-10-12T06:12:11.507Z,98465.47
2022-10-12T06:14:38.205Z,98452.13
2022-10-12T06:17:04.974Z,98457.03
2022-10-12T06:19:31.655Z,98454.28
2022-10-12T06:21:58.502Z,98456.66
2022-10-12T06:24:25.249Z,98465.94
2022-10-12T06:26:51.938Z,98457.69
2022-10-12T06:29:18.855Z,98466.84
2022-10-12T06:31:51.219Z,98463.06
2022-10-12T06:34:18.694Z,98464.53
2022-10-12T06:36:45.407Z,98457.47
2022-10-12T06:39:12.689Z,98466.69
2022-10-12T06:41:39.446Z,98464.63
2022-10-12T06:44:06.602Z,98471.19
2022-10-12T06:46:33.439Z,98471.47
2022-10-12T06:49:00.134Z,98464.13
2022-10-12T06:51:26.834Z,98470.91
2022-10-12T06:53:56.965Z,98474.25
2022-10-12T06:56:23.919Z,98469.44
2022-10-12T06:58:57.618Z,98472.34
2022-10-12T07:01:24.627Z,98482.19
2022-10-12T07:03:51.359Z,98478.16
2022-10-12T07:06:18.176Z,98482.66
2022-10-12T07:08:44.967Z,98486.34
2022-10-12T07:11:13.164Z,98486.47
2022-10-12T07:13:40.109Z,98481.41
2022-10-12T07:16:07.596Z,98491.53
2022-10-12T07:18:34.510Z,98481.69
2022-10-12T07:21:02.681Z,98498.25
2022-10-12T07:23:34.702Z,98497.84
2022-10-12T07:26:01.634Z,98493.03
2022-10-12T07:28:28.862Z,98489.72
2022-10-12T07:31:02.318Z,98490.19
2022-10-12T07:33:33.931Z,98496.59
2022-10-12T07:36:13.906Z,98490.47
2022-10-12T07:38:44.950Z,98481.22
2022-10-12T07:41:13.022Z,98478.84
2022-10-12T07:43:39.826Z,98489.69
2022-10-12T07:46:07.381Z,98486.63
2022-10-12T07:48:34.762Z,98490.47
2022-10-12T07:51:10.252Z,98496.16
2022-10-12T07:53:38.950Z,98490.50
2022-10-12T07:56:14.790Z,98490.78
2022-10-12T07:58:50.799Z,98495.34
2022-10-12T08:01:20.172Z,98495.63
2022-10-12T08:03:47.768Z,98489.81
2022-10-12T08:06:22.617Z,98485.19
2022-10-12T08:08:50.709Z,98477.34
2022-10-12T08:11:19.784Z,98483.31
2022-10-12T08:13:47.330Z,98477.84
2022-10-12T08:16:19.293Z,98482.28
2022-10-12T08:18:46.392Z,98474.69
2022-10-12T08:21:15.888Z,98465.19
2022-10-12T08:23:44.938Z,98469.84
2022-10-12T08:26:12.856Z,98468.31
2022-10-12T08:28:40.037Z,98464.94
2022-10-12T08:31:13.259Z,98459.97
2022-10-12T08:33:40.574Z,98466.34
2022-10-12T08:36:08.835Z,98471.53
2022-10-12T08:38:40.224Z,98465.25
2022-10-12T08:41:46.882Z,98453.06
2022-10-12T08:44:34.596Z,98455.81
2022-10-12T08:47:17.860Z,98447.72
2022-10-12T08:49:50.070Z,98453.88
2022-10-12T08:52:34.920Z,98446.72
2022-10-12T08:55:20.516Z,98443.28
2022-10-12T08:57:49.890Z,98451.56
2022-10-12T09:00:18.138Z,98446.88
2022-10-12T09:03:08.905Z,98441.22
2022-10-12T09:06:02.373Z,98452.81
2022-10-12T09:09:00.367Z,98455.44
2022-10-12T09:11:57.716Z,98456.69
2022-10-12T09:14:37.775Z,98444.91
2022-10-12T09:17:26.996Z,98452.25
2022-10-12T09:20:05.920Z,98442.28
2022-10-12T09:22:34.448Z,98449.47
2022-10-12T09:25:02.787Z,98447.41
2022-10-12T09:27:31.716Z,98440.31
2022-10-12T09:30:05.342Z,98438.69
2022-10-12T09:32:48.298Z,98446.78
2022-10-12T09:35:15.492Z,98447.47
2022-10-12T09:37:46.522Z,98448.03
2022-10-12T09:40:32.635Z,98444.34
2022-10-12T09:43:03.794Z,98448.84
2022-10-12T09:45:34.498Z,98447.75
2022-10-12T09:48:21.775Z,98442.84
2022-10-12T09:51:03.150Z,98450.25
2022-10-12T09:53:46.265Z,98448.50
2022-10-12T09:56:26.868Z,98438.22
2022-10-12T09:59:00.975Z,98439.47
2022-10-12T10:01:34.521Z,98434.47
2022-10-12T10:04:17.535Z,98438.25
2022-10-12T10:06:46.620Z,98436.56
2022-10-12T10:09:35.381Z,98429.50
2022-10-12T10:12:31.660Z,98431.00
2022-10-12T10:14:59.675Z,98431.81
2022-10-12T10:17:33.890Z,98429.94
2022-10-12T10:20:05.508Z,98426.91
2022-10-12T10:22:32.883Z,98428.28
2022-10-12T10:25:01.268Z,98431.38
2022-10-12T10:27:37.696Z,98426.09
2022-10-12T10:30:29.818Z,98424.47
2022-10-12T10:33:32.480Z,98421.53
2022-10-12T10:36:23.096Z,98420.19
2022-10-12T10:39:02.756Z,98421.09
2022-10-12T10:41:38.486Z,98423.53
2022-10-12T10:44:21.724Z,98425.09
2022-10-12T10:46:49.164Z,98422.44
2022-10-12T10:49:34.359Z,98428.41
2022-10-12T10:52:03.927Z,98420.38
2022-10-12T10:54:37.938Z,98421.72
2022-10-12T10:57:21.626Z,98417.09
2022-10-12T10:59:53.422Z,98422.19
2022-10-12T11:02:48.949Z,98428.44
2022-10-12T11:05:26.714Z,98420.38
2022-10-12T11:08:01.404Z,98412.84
2022-10-12T11:10:50.132Z,98414.66
2022-10-12T11:13:36.161Z,98405.84
2022-10-12T11:16:37.815Z,98406.97
2022-10-12T11:19:36.910Z,98406.47
2022-10-12T11:22:25.691Z,98404.81
2022-10-12T11:24:56.300Z,98401.41
2022-10-12T11:27:37.062Z,98401.81
2022-10-12T11:30:14.705Z,98397.78
2022-10-12T11:32:51.467Z,98392.97
2022-10-12T11:35:34.103Z,98393.81
2022-10-12T11:38:11.602Z,98386.94
2022-10-12T11:41:31.181Z,98386.31
2022-10-12T11:43:49.755Z,98382.88
2022-10-12T11:46:26.078Z,98373.59
2022-10-12T11:49:01.581Z,98375.94
2022-10-12T11:51:28.289Z,98370.41
2022-10-12T11:54:07.358Z,98373.16
2022-10-12T11:56:50.820Z,98357.69
2022-10-12T11:59:26.209Z,98356.69
2022-10-12T12:02:45.071Z,98353.03
2022-10-12T12:05:17.319Z,98346.47
2022-10-12T12:07:53.863Z,98340.88
2022-10-12T12:10:27.509Z,98339.28
2022-10-12T12:13:15.346Z,98337.97
2022-10-12T12:15:52.339Z,98345.47
2022-10-12T12:18:29.293Z,98324.69
2022-10-12T12:21:10.069Z,98325.38
2022-10-12T12:23:52.617Z,98330.25
2022-10-12T12:26:30.704Z,98327.97
2022-10-12T12:29:27.326Z,98329.50
2022-10-12T12:31:59.021Z,98326.56
2022-10-12T12:34:27.883Z,98324.91
2022-10-12T12:36:55.203Z,98316.03
2022-10-12T12:39:33.698Z,98323.81
2022-10-12T12:42:10.459Z,98327.59
2022-10-12T12:44:44.791Z,98311.66
2022-10-12T12:47:40.283Z,98319.50
2022-10-12T12:50:09.175Z,98317.44
2022-10-12T12:52:40.665Z,98305.44
2022-10-12T12:55:16.213Z,98313.25
2022-10-12T12:58:20.219Z,98310.69
2022-10-12T13:01:21.395Z,98302.19
2022-10-12T13:04:38.644Z,98307.31
2022-10-12T13:08:04.960Z,98308.09
2022-10-12T13:11:03.488Z,98304.97
2022-10-12T13:13:48.655Z,98311.75
2022-10-12T13:19:37.778Z,98296.22
2022-10-12T13:22:13.986Z,98286.31
2022-10-12T13:24:50.251Z,98291.63
2022-10-12T13:27:48.106Z,98288.34
2022-10-12T13:30:47.849Z,98271.19
2022-10-12T13:33:32.726Z,98274.72
2022-10-12T13:36:28.236Z,98275.78
2022-10-12T13:38:57.839Z,98261.63
2022-10-12T13:41:30.235Z,98275.13
2022-10-12T13:44:06.386Z,98270.69
2022-10-12T13:46:45.175Z,98271.81
2022-10-12T13:49:19.756Z,98269.16
2022-10-12T13:51:51.867Z,98268.97
2022-10-12T13:54:22.563Z,98273.25
2022-10-12T13:57:03.801Z,98263.66
2022-10-12T13:59:37.499Z,98264.78
2022-10-12T14:02:17.378Z,98255.81
2022-10-12T14:04:44.598Z,98258.91
2022-10-12T14:07:39.545Z,98258.22
2022-10-12T14:10:18.366Z,98240.06
2022-10-12T14:12:48.664Z,98240.06
2022-10-12T14:15:17.649Z,98240.06
2022-10-12T14:17:50.802Z,98247.69
2022-10-12T14:20:39.340Z,98253.06
2022-10-12T14:23:17.087Z,98243.59
2022-10-12T14:25:54.176Z,98234.13
2022-10-12T14:28:35.411Z,98235.97
2022-10-12T14:31:02.805Z,98236.44
2022-10-12T14:33:31.788Z,98244.50
2022-10-12T14:36:27.110Z,98243.41
2022-10-12T14:38:54.078Z,98236.78
2022-10-12T14:41:40.650Z,98239.78
2022-10-12T14:44:11.169Z,98235.13
2022-10-12T14:46:46.871Z,98228.81
2022-10-12T14:49:40.717Z,98228.53
2022-10-12T14:52:24.680Z,98227.22
2022-10-12T14:54:57.988Z,98225.44
2022-10-12T14:57:28.159Z,98224.97
2022-10-12T14:59:54.903Z,98228.00
2022-10-12T15:02:31.633Z,98217.56
2022-10-12T15:04:59.522Z,98222.50
2022-10-12T15:07:33.863Z,98215.25
2022-10-12T15:10:01.571Z,98222.88
2022-10-12T15:12:30.396Z,98224.88
2022-10-12T15:15:01.046Z,98217.50
2022-10-12T15:17:28.338Z,98226.25
2022-10-12T15:19:55.090Z,98228.25
2022-10-12T15:22:25.945Z,98229.22
2022-10-12T15:24:55.712Z,98224.75
2022-10-12T15:27:22.632Z,98230.19
2022-10-12T15:29:49.513Z,98220.50
2022-10-12T15:32:18.617Z,98223.81
2022-10-12T15:34:45.599Z,98225.28
2022-10-12T15:37:12.366Z,98220.16
2022-10-12T15:39:39.296Z,98222.84
2022-10-12T15:42:06.052Z,98214.69
2022-10-12T15:44:40.855Z,98217.34
2022-10-12T15:47:11.000Z,98228.13
2022-10-12T15:49:38.482Z,98232.34
2022-10-12T15:52:10.944Z,98221.78
2022-10-12T15:54:37.662Z,98219.53
2022-10-12T15:57:06.872Z,98219.69
2022-10-12T15:59:33.892Z,98226.22
2022-10-12T16:02:00.663Z,98228.66
2022-10-12T16:04:27.392Z,98222.69
2022-10-12T16:06:54.121Z,98228.44
2022-10-12T16:09:20.830Z,98230.06
2022-10-12T16:11:47.566Z,98224.31
2022-10-12T16:14:14.698Z,98228.34
2022-10-12T16:16:41.448Z,98225.38
2022-10-12T16:19:08.421Z,98230.09
2022-10-12T16:21:35.119Z,98230.44
2022-10-12T16:24:01.841Z,98232.28
2022-10-12T16:26:28.553Z,98237.53
2022-10-12T16:28:55.299Z,98232.44
2022-10-12T16:31:22.035Z,98238.66
2022-10-12T16:33:48.774Z,98249.25
2022-10-12T16:36:16.707Z,98238.91
2022-10-12T16:38:44.719Z,98245.25
2022-10-12T16:41:17.065Z,98247.06
2022-10-12T16:43:44.271Z,98246.50
2022-10-12T16:46:11.057Z,98251.56
2022-10-12T16:48:38.283Z,98252.66
2022-10-12T16:51:10.297Z,98253.88
2022-10-12T16:53:37.233Z,98256.59
2022-10-12T16:56:04.965Z,98265.22
2022-10-12T16:58:31.807Z,98266.56
2022-10-12T17:00:58.551Z,98266.28
2022-10-12T17:03:25.444Z,98267.34
2022-10-12T17:06:00.145Z,98261.78
2022-10-12T17:08:27.354Z,98271.00
2022-10-12T17:10:55.178Z,98261.16
2022-10-12T17:13:21.915Z,98258.34
2022-10-12T17:15:48.619Z,98259.72
2022-10-12T17:18:15.308Z,98268.78
2022-10-12T17:20:42.030Z,98271.53
2022-10-12T17:23:08.770Z,98280.84
2022-10-12T17:25:35.858Z,98276.97
2022-10-12T17:28:02.548Z,98282.69
2022-10-12T17:30:29.383Z,98284.88
2022-10-12T17:32:56.077Z,98284.66
2022-10-12T17:35:22.781Z,98281.13
2022-10-12T17:37:49.479Z,98279.16
2022-10-12T17:40:16.334Z,98280.81
2022-10-12T17:42:43.070Z,98282.53
2022-10-12T17:45:10.694Z,98286.81
2022-10-12T17:47:39.064Z,98283.50
2022-10-12T17:50:06.338Z,98285.69
2022-10-12T17:52:39.271Z,98281.41
2022-10-12T17:55:09.408Z,98284.28
2022-10-12T17:57:41.913Z,98280.94
2022-10-12T18:00:09.670Z,98284.88
2022-10-12T18:02:36.359Z,98286.91
2022-10-12T18:05:03.169Z,98291.53
2022-10-12T18:07:30.295Z,98291.06
2022-10-12T18:12:28.695Z,98286.94
2022-10-12T18:14:55.405Z,98287.44
2022-10-12T18:17:22.798Z,98296.56
2022-10-12T18:19:49.781Z,98295.28
2022-10-12T18:22:16.849Z,98292.78
2022-10-12T18:24:43.723Z,98288.59
2022-10-12T18:27:10.441Z,98290.75
2022-10-12T18:29:37.169Z,98296.09
2022-10-12T18:32:06.481Z,98299.06
2022-10-12T18:34:36.728Z,98294.91
2022-10-12T18:37:04.253Z,98288.50
2022-10-12T18:39:31.352Z,98286.97
2022-10-12T18:41:58.553Z,98285.41
2022-10-12T18:44:25.566Z,98291.59
2022-10-12T18:46:52.311Z,98297.88
2022-10-12T18:49:19.023Z,98291.31
2022-10-12T18:51:51.159Z,98303.75
2022-10-12T18:54:18.752Z,98294.88
2022-10-12T18:56:45.852Z,98300.53
2022-10-12T18:59:17.339Z,98298.28
2022-10-12T19:01:45.355Z,98294.25
2022-10-12T19:04:12.264Z,98304.91
2022-10-12T19:06:42.422Z,98309.63
2022-10-12T19:09:13.530Z,98309.16
2022-10-12T19:11:40.406Z,98308.66
2022-10-12T19:14:15.686Z,98312.44
2022-10-12T19:16:43.903Z,98304.75
2022-10-12T19:19:20.761Z,98306.63
2022-10-12T19:21:49.614Z,98304.47
2022-10-12T19:24:16.541Z,98297.13
2022-10-12T19:26:44.583Z,98292.22
2022-10-12T19:29:11.317Z,98299.44
2022-10-12T19:31:42.296Z,98291.75
2022-10-12T19:34:12.262Z,98296.97
2022-10-12T19:36:40.765Z,98285.94
2022-10-12T19:39:17.036Z,98278.44
2022-10-12T19:41:44.280Z,98296.06
2022-10-12T19:44:12.730Z,98295.59
2022-10-12T19:46:42.449Z,98294.13
2022-10-12T19:49:13.615Z,98285.72
2022-10-12T19:51:40.636Z,98292.81
2022-10-12T19:54:07.334Z,98307.94
2022-10-12T19:56:34.017Z,98301.91
2022-10-12T19:59:00.798Z,98305.69
2022-10-12T20:01:34.882Z,98303.19
2022-10-12T20:04:05.380Z,98301.75
2022-10-12T20:06:32.771Z,98305.63
2022-10-12T20:09:04.743Z,98290.56
2022-10-12T20:11:31.470Z,98305.47
2022-10-12T20:13:58.599Z,98306.38
2022-10-12T20:16:27.524Z,98305.25
2022-10-12T20:18:56.824Z,98304.72
2022-10-12T20:21:24.202Z,98310.75
2022-10-12T20:23:51.871Z,98310.47
2022-10-12T20:26:26.042Z,98310.03
2022-10-12T20:28:54.619Z,98301.81
2022-10-12T20:31:29.277Z,98310.94
2022-10-12T20:33:57.705Z,98313.31
2022-10-12T20:36:30.818Z,98315.91
2022-10-12T20:38:58.766Z,98310.50
2022-10-12T20:41:27.489Z,98308.41
2022-10-12T20:43:59.905Z,98311.72
2022-10-12T20:46:28.512Z,98311.50
2022-10-12T20:48:59.599Z,98305.44
2022-10-12T20:51:44.740Z,98302.13
2022-10-12T20:54:15.938Z,98304.84
2022-10-12T20:56:43.899Z,98299.41
2022-10-12T20:59:10.973Z,98300.13
2022-10-12T21:01:37.910Z,98298.97
2022-10-12T21:04:04.643Z,98298.75
2022-10-12T21:06:31.353Z,98305.38
2022-10-12T21:08:58.299Z,98298.19
2022-10-12T21:11:25.846Z,98299.75
2022-10-12T21:13:53.218Z,98299.53
2022-10-12T21:16:20.099Z,98300.00
2022-10-12T21:18:47.083Z,98300.75
2022-10-12T21:21:18.847Z,98295.41
2022-10-12T21:24:01.247Z,98294.59
2022-10-12T21:26:31.107Z,98291.97
2022-10-12T21:29:00.876Z,98295.63
2022-10-12T21:31:32.224Z,98299.28
2022-10-12T21:34:06.915Z,98292.41
2022-10-12T21:36:36.524Z,98291.59
2022-10-12T21:39:08.142Z,98297.84
2022-10-12T21:41:35.047Z,98299.97
2022-10-12T21:44:01.759Z,98296.25
2022-10-12T21:46:32.493Z,98295.84
2022-10-12T21:49:01.377Z,98290.38
2022-10-12T21:51:31.439Z,98286.66
2022-10-12T21:53:58.667Z,98290.75
2022-10-12T21:56:32.499Z,98295.47
2022-10-12T21:59:02.054Z,98295.97
2022-10-12T22:01:35.247Z,98312.88
2022-10-12T22:04:06.224Z,98304.69
2022-10-12T22:06:34.430Z,98304.38
2022-10-12T22:09:05.463Z,98299.56
2022-10-12T22:11:35.440Z,98293.03
2022-10-12T22:14:09.265Z,98288.47
2022-10-12T22:16:36.875Z,98295.06
2022-10-12T22:19:07.755Z,98304.22
2022-10-12T22:21:36.373Z,98298.38
2022-10-12T22:24:03.719Z,98296.94
2022-10-12T22:26:30.576Z,98299.84
2022-10-12T22:28:57.501Z,98289.66
2022-10-12T22:31:25.085Z,98295.06
2022-10-12T22:33:53.273Z,98291.94
2022-10-12T22:36:20.296Z,98293.19
2022-10-12T22:38:47.129Z,98289.03
2022-10-12T22:41:17.836Z,98280.53
2022-10-12T22:43:44.548Z,98274.78
2022-10-12T22:46:12.185Z,98273.34
2022-10-12T22:48:39.195Z,98272.81
2022-10-12T22:51:07.498Z,98270.63
2022-10-12T22:53:35.637Z,98271.78
2022-10-12T22:56:06.571Z,98265.09
2022-10-12T22:58:35.170Z,98265.41
2022-10-12T23:01:09.854Z,98264.78
2022-10-12T23:03:37.553Z,98263.13
2022-10-12T23:06:05.429Z,98258.03
2022-10-12T23:08:32.724Z,98244.59
2022-10-12T23:11:05.436Z,98250.94
2022-10-12T23:13:34.177Z,98260.41
2022-10-12T23:16:17.868Z,98246.69
2022-10-12T23:18:45.221Z,98256.38
2022-10-12T23:21:16.382Z,98249.69
2022-10-12T23:23:45.231Z,98244.88
2022-10-12T23:26:16.113Z,98249.53
2022-10-12T23:28:43.240Z,98257.72
2022-10-12T23:31:12.219Z,98253.75
2022-10-12T23:33:39.322Z,98255.50
2022-10-12T23:36:10.909Z,98251.34
2022-10-12T23:38:40.328Z,98257.59
2022-10-12T23:41:08.215Z,98251.78
2022-10-12T23:43:35.898Z,98251.16
2022-10-12T23:46:05.103Z,98258.19
2022-10-12T23:48:32.941Z,98244.56
2022-10-12T23:51:00.121Z,98242.91
2022-10-12T23:53:27.036Z,98247.47
2022-10-12T23:55:54.374Z,98238.03
2022-10-12T23:58:21.480Z,98243.41
